Time;durP1;ratioP1;P1;durP2;ratioP2;P2;SDS_P1;SDS_P2;PMS_P1;PMS_P2;Temp;Humidity;BMP_temperature;BMP_pressure;BME280_temperature;BME280_humidity;BME280_pressure;Samples;Min_cycle;Max_cycle;Signal;HPM_P1;HPM_P2
2023/11/29 00:02:02;;;;;;;25.17;13.90;;;;;;;-0.81;100.00;100279.91;5045430;28;20029;-73
2023/11/29 00:04:28;;;;;;;24.83;13.35;;;;;;;-0.79;100.00;100280.84;5042685;28;20167;-68
2023/11/29 00:06:53;;;;;;;25.30;13.68;;;;;;;-0.83;100.00;100284.19;5046018;28;20029;-69
2023/11/29 00:09:18;;;;;;;25.33;13.68;;;;;;;-0.73;100.00;100281.13;5043025;28;20104;-74
2023/11/29 00:11:44;;;;;;;25.05;13.50;;;;;;;-0.72;100.00;100274.22;5044886;28;20041;-68
2023/11/29 00:14:10;;;;;;;26.30;13.98;;;;;;;-0.66;100.00;100271.00;5044418;28;20025;-66
2023/11/29 00:16:35;;;;;;;25.33;14.05;;;;;;;-0.67;100.00;100270.13;5043207;28;20373;-66
2023/11/29 00:19:01;;;;;;;25.60;13.80;;;;;;;-0.67;100.00;100269.22;5045564;28;20025;-67
2023/11/29 00:21:28;;;;;;;25.48;13.90;;;;;;;-0.66;100.00;100265.81;5042307;28;20152;-65
2023/11/29 00:23:53;;;;;;;25.70;14.10;;;;;;;-0.54;100.00;100261.09;5038301;28;20029;-65
2023/11/29 00:26:22;;;;;;;24.80;13.32;;;;;;;-0.49;100.00;100259.56;5045160;28;20029;-66
2023/11/29 00:28:48;;;;;;;25.50;14.20;;;;;;;-0.47;100.00;100254.44;5042766;28;20040;-65
2023/11/29 00:31:14;;;;;;;25.88;14.00;;;;;;;-0.42;100.00;100263.31;5044420;28;20025;-64
2023/11/29 00:33:39;;;;;;;24.55;13.25;;;;;;;-0.43;100.00;100257.19;5044337;28;20037;-65
2023/11/29 00:36:06;;;;;;;25.10;13.35;;;;;;;-0.39;100.00;100253.91;5042966;28;20030;-68
2023/11/29 00:38:32;;;;;;;25.33;13.38;;;;;;;-0.45;100.00;100248.47;5045067;28;20040;-67
2023/11/29 00:40:57;;;;;;;26.20;13.85;;;;;;;-0.48;100.00;100235.38;5042109;28;20029;-68
2023/11/29 00:43:23;;;;;;;25.65;13.50;;;;;;;-0.50;100.00;100231.81;5045252;28;20033;-70
2023/11/29 00:45:48;;;;;;;25.70;14.07;;;;;;;-0.43;100.00;100239.03;5042587;28;20491;-69
2023/11/29 00:48:14;;;;;;;26.50;13.90;;;;;;;-0.31;100.00;100230.81;5043898;28;20082;-68
2023/11/29 00:50:39;;;;;;;26.40;14.10;;;;;;;-0.32;100.00;100225.56;5042420;28;20033;-67
2023/11/29 00:53:05;;;;;;;25.65;13.40;;;;;;;-0.27;100.00;100224.91;5042758;28;20034;-68
2023/11/29 00:55:30;;;;;;;26.20;14.20;;;;;;;-0.24;100.00;100221.56;5044471;28;20036;-70
2023/11/29 00:57:55;;;;;;;25.52;13.63;;;;;;;-0.16;100.00;100217.56;5041510;28;20087;-71
2023/11/29 01:00:21;;;;;;;26.00;13.52;;;;;;;-0.11;100.00;100222.91;5044394;28;20192;-70
2023/11/29 01:02:47;;;;;;;25.00;13.77;;;;;;;-0.07;100.00;100227.41;5042399;28;20037;-71
2023/11/29 01:05:12;;;;;;;25.58;13.43;;;;;;;-0.03;100.00;100245.75;5043606;28;20129;-70
2023/11/29 01:07:38;;;;;;;25.08;13.23;;;;;;;-0.03;100.00;100266.56;5043710;28;20117;-70
2023/11/29 01:10:04;;;;;;;25.10;13.45;;;;;;;-0.03;100.00;100261.34;5040775;28;20041;-71
2023/11/29 01:12:29;;;;;;;25.88;14.15;;;;;;;-0.01;100.00;100258.81;5044584;28;20036;-72
2023/11/29 01:14:54;;;;;;;26.13;14.27;;;;;;;0.04;100.00;100271.97;5040221;28;20029;-70
2023/11/29 01:17:20;;;;;;;26.10;15.10;;;;;;;0.15;100.00;100275.88;5043975;28;20074;-70
2023/11/29 01:19:45;;;;;;;29.40;19.17;;;;;;;0.22;100.00;100269.16;5042711;28;20056;-70
2023/11/29 01:22:10;;;;;;;25.98;15.98;;;;;;;0.27;100.00;100268.50;5042723;28;20026;-71
2023/11/29 01:24:36;;;;;;;28.67;20.23;;;;;;;0.36;100.00;100257.56;5043504;28;20028;-70
2023/11/29 01:27:01;;;;;;;28.42;20.48;;;;;;;0.37;100.00;100245.47;5041593;28;20029;-71
2023/11/29 01:29:26;;;;;;;29.17;21.55;;;;;;;0.37;100.00;100242.84;5044794;28;20029;-70
2023/11/29 01:31:52;;;;;;;29.55;22.35;;;;;;;0.30;100.00;100240.00;5040257;28;20030;-68
2023/11/29 01:34:17;;;;;;;31.40;23.33;;;;;;;0.23;100.00;100240.63;5042396;28;20392;-70
2023/11/29 01:36:43;;;;;;;30.55;23.40;;;;;;;0.24;100.00;100247.59;5042399;28;20025;-69
2023/11/29 01:39:15;;;;;;;31.13;25.13;;;;;;;0.07;100.00;100244.38;5042156;28;20473;-67
2023/11/29 01:41:41;;;;;;;34.58;28.27;;;;;;;-0.11;100.00;100241.97;5042887;28;20483;-70
2023/11/29 01:44:07;;;;;;;33.55;29.48;;;;;;;-0.18;100.00;100240.84;5041829;28;20025;-69
2023/11/29 01:46:33;;;;;;;32.90;27.90;;;;;;;-0.31;100.00;100251.59;5043674;28;20491;-66
2023/11/29 01:48:59;;;;;;;34.78;29.90;;;;;;;-0.23;100.00;100249.31;5040884;28;20120;-72
2023/11/29 01:51:24;;;;;;;35.67;30.92;;;;;;;-0.34;100.00;100246.28;5036747;28;20124;-74
2023/11/29 01:53:52;;;;;;;38.45;32.28;;;;;;;-0.49;100.00;100243.97;5043804;28;20036;-72
2023/11/29 01:56:19;;;;;;;43.75;33.35;;;;;;;-0.75;100.00;100228.25;5041789;28;20050;-71
2023/11/29 01:58:45;;;;;;;41.17;36.60;;;;;;;-0.94;100.00;100229.22;5042979;28;20041;-72
2023/11/29 02:01:10;;;;;;;40.63;36.25;;;;;;;-1.00;100.00;100222.91;5042373;28;20045;-75
2023/11/29 02:03:36;;;;;;;42.65;38.03;;;;;;;-1.09;100.00;100224.28;5041804;28;20059;-71
2023/11/29 02:06:01;;;;;;;40.70;36.00;;;;;;;-1.04;100.00;100211.50;5043852;28;20029;-74
2023/11/29 02:08:29;;;;;;;42.60;36.15;;;;;;;-1.12;100.00;100193.03;5043062;28;20026;-72
2023/11/29 02:10:55;;;;;;;41.72;36.53;;;;;;;-1.10;100.00;100185.31;5040967;28;20025;-72
2023/11/29 02:13:20;;;;;;;45.22;38.15;;;;;;;-1.10;100.00;100181.00;5047593;28;20021;-76
2023/11/29 02:15:46;;;;;;;45.47;40.22;;;;;;;-1.10;100.00;100186.19;5045724;28;20037;-75
2023/11/29 02:18:13;;;;;;;43.60;37.72;;;;;;;-1.09;100.00;100159.44;5045205;28;20040;-71
2023/11/29 02:20:39;;;;;;;44.15;36.75;;;;;;;-0.97;100.00;100171.13;5046677;28;20166;-71
2023/11/29 02:23:10;;;;;;;47.83;38.78;;;;;;;-1.03;100.00;100157.88;5045192;28;20045;-72
2023/11/29 02:25:35;;;;;;;42.05;36.00;;;;;;;-0.99;100.00;100157.19;5047313;28;20108;-71
2023/11/29 02:28:00;;;;;;;42.00;34.33;;;;;;;-0.93;100.00;100165.25;5044649;28;20116;-75
2023/11/29 02:30:26;;;;;;;39.22;32.08;;;;;;;-0.93;100.00;100147.94;5047862;28;20037;-67
2023/11/29 02:32:51;;;;;;;38.42;30.92;;;;;;;-0.97;100.00;100145.19;5044896;28;20077;-67
2023/11/29 02:35:16;;;;;;;36.08;26.17;;;;;;;-0.94;100.00;100145.28;5046714;28;20061;-67
2023/11/29 02:37:42;;;;;;;33.85;24.40;;;;;;;-0.89;100.00;100139.47;5044937;28;20029;-66
2023/11/29 02:40:08;;;;;;;33.08;24.60;;;;;;;-0.85;100.00;100143.06;5045237;28;20087;-66
2023/11/29 02:42:33;;;;;;;33.97;26.42;;;;;;;-0.88;100.00;100137.75;5047087;28;20112;-66
2023/11/29 02:44:58;;;;;;;35.92;28.73;;;;;;;-0.87;100.00;100126.56;5044218;28;20128;-66
2023/11/29 02:47:24;;;;;;;36.25;30.40;;;;;;;-0.80;100.00;100138.03;5046470;28;20065;-68
2023/11/29 02:49:49;;;;;;;38.78;31.83;;;;;;;-0.79;100.00;100140.69;5044782;28;20087;-67
2023/11/29 02:52:15;;;;;;;38.40;33.90;;;;;;;-0.77;100.00;100149.44;5046260;28;20029;-67
2023/11/29 02:54:40;;;;;;;41.10;36.13;;;;;;;-0.73;100.00;100164.31;5045971;28;20025;-67
2023/11/29 02:57:05;;;;;;;43.28;38.60;;;;;;;-0.76;100.00;100150.31;5044722;28;20038;-66
2023/11/29 02:59:31;;;;;;;43.05;38.35;;;;;;;-0.85;100.00;100137.00;5047124;28;20044;-66
2023/11/29 03:01:56;;;;;;;46.28;41.28;;;;;;;-0.90;100.00;100129.03;5044184;28;20069;-67
2023/11/29 03:04:21;;;;;;;46.80;40.88;;;;;;;-0.93;100.00;100111.63;5046668;28;20369;-72
2023/11/29 03:06:47;;;;;;;44.03;38.80;;;;;;;-0.89;100.00;100100.53;5044994;28;20095;-71
2023/11/29 03:09:12;;;;;;;43.90;39.13;;;;;;;-0.85;100.00;100101.53;5045335;28;20018;-72
2023/11/29 03:11:37;;;;;;;44.80;39.22;;;;;;;-0.85;100.00;100101.53;5046241;28;20068;-71
2023/11/29 03:14:03;;;;;;;44.90;38.53;;;;;;;-0.83;100.00;100101.59;5044031;28;20033;-72
2023/11/29 03:16:28;;;;;;;43.35;38.08;;;;;;;-0.83;100.00;100097.28;5046936;28;20029;-71
2023/11/29 03:18:54;;;;;;;44.63;38.35;;;;;;;-0.84;100.00;100081.66;5043953;28;20121;-71
2023/11/29 03:21:19;;;;;;;42.95;36.88;;;;;;;-0.84;100.00;100079.94;5046303;28;20472;-71
2023/11/29 03:23:44;;;;;;;42.40;37.72;;;;;;;-0.80;100.00;100078.34;5044747;28;20476;-71
2023/11/29 03:26:10;;;;;;;43.75;37.67;;;;;;;-0.81;100.00;100074.88;5044960;28;20034;-71
2023/11/29 03:28:35;;;;;;;40.22;34.40;;;;;;;-0.71;100.00;100060.53;5046144;28;20029;-71
2023/11/29 03:31:00;;;;;;;42.50;37.45;;;;;;;-0.74;100.00;100061.28;5043269;28;20040;-70
2023/11/29 03:33:26;;;;;;;41.80;36.30;;;;;;;-0.69;100.00;100052.81;5046959;28;20130;-71
2023/11/29 03:35:51;;;;;;;43.22;36.92;;;;;;;-0.69;100.00;100064.06;5043955;28;20420;-71
2023/11/29 03:38:16;;;;;;;43.08;38.47;;;;;;;-0.66;100.00;100064.16;5045447;28;20030;-71
2023/11/29 03:40:42;;;;;;;42.97;38.38;;;;;;;-0.64;100.00;100053.84;5045187;28;20025;-64
2023/11/29 03:43:07;;;;;;;43.55;38.72;;;;;;;-0.74;100.00;100043.13;5043955;28;20033;-64
2023/11/29 03:45:32;;;;;;;41.53;36.60;;;;;;;-0.68;100.00;100044.16;5046410;28;20029;-64
2023/11/29 03:47:58;;;;;;;42.53;36.67;;;;;;;-0.68;100.00;100036.38;5043274;28;20473;-66
2023/11/29 03:50:23;;;;;;;42.67;37.78;;;;;;;-0.67;100.00;100032.97;5046372;28;20033;-65
2023/11/29 03:52:49;;;;;;;42.90;38.20;;;;;;;-0.67;100.00;100040.75;5044009;28;20074;-64
2023/11/29 03:55:14;;;;;;;42.08;36.15;;;;;;;-0.63;100.00;100027.94;5044673;28;20041;-65
2023/11/29 03:57:39;;;;;;;42.83;37.20;;;;;;;-0.67;100.00;100019.97;5045212;28;20426;-64
2023/11/29 04:00:07;;;;;;;42.53;33.78;;;;;;;-0.63;100.00;100027.06;5043298;28;20045;-64
2023/11/29 04:02:32;;;;;;;42.50;36.75;;;;;;;-0.59;100.00;100023.75;5045944;28;20025;-64
2023/11/29 04:04:57;;;;;;;42.33;35.03;;;;;;;-0.62;100.00;100010.66;5042716;28;20044;-64
2023/11/29 04:07:23;;;;;;;41.00;34.10;;;;;;;-0.62;100.00;100018.44;5044657;28;20171;-65
2023/11/29 04:09:48;;;;;;;40.80;32.88;;;;;;;-0.57;100.00;100017.78;5043590;28;20178;-65
2023/11/29 04:12:13;;;;;;;41.22;33.60;;;;;;;-0.58;100.00;100005.63;5044394;28;20034;-64
2023/11/29 04:14:39;;;;;;;38.72;31.98;;;;;;;-0.57;100.00;100006.50;5044871;28;20040;-64
2023/11/29 04:17:05;;;;;;;39.88;30.08;;;;;;;-0.56;100.00;100016.06;5043056;28;20029;-69
2023/11/29 04:19:30;;;;;;;38.97;30.40;;;;;;;-0.56;100.00;100005.69;5045894;28;20035;-65
2023/11/29 04:21:56;;;;;;;35.92;28.27;;;;;;;-0.56;100.00;100005.69;5042862;28;20030;-64
2023/11/29 04:24:21;;;;;;;37.03;29.10;;;;;;;-0.50;100.00;100003.28;5045009;28;20472;-66
2023/11/29 04:26:47;;;;;;;37.13;28.70;;;;;;;-0.54;100.00;100012.69;5043651;28;20055;-67
2023/11/29 04:29:12;;;;;;;37.92;28.88;;;;;;;-0.61;100.00;100005.53;5043763;28;20029;-65
2023/11/29 04:31:39;;;;;;;37.38;24.77;;;;;;;-0.55;100.00;100010.06;5042746;28;20372;-65
2023/11/29 04:34:05;;;;;;;34.55;26.48;;;;;;;-0.51;100.00;100011.94;5041452;28;20061;-65
2023/11/29 04:36:30;;;;;;;36.10;26.42;;;;;;;-0.57;100.00;100010.00;5045846;28;20139;-65
2023/11/29 04:38:57;;;;;;;36.22;25.65;;;;;;;-0.64;100.00;99994.13;5041985;28;20044;-68
2023/11/29 04:41:23;;;;;;;34.42;23.80;;;;;;;-0.63;100.00;100001.97;5045196;28;20044;-66
2023/11/29 04:43:49;;;;;;;35.10;25.00;;;;;;;-0.60;100.00;100002.06;5042936;28;20029;-65
2023/11/29 04:46:14;;;;;;;34.00;22.95;;;;;;;-0.54;100.00;99998.81;5043636;28;20465;-70
2023/11/29 04:48:43;;;;;;;33.10;20.70;;;;;;;-0.48;100.00;99992.97;5044245;28;20028;-71
2023/11/29 04:51:08;;;;;;;32.28;20.10;;;;;;;-0.42;100.00;99993.19;5042664;28;20033;-68
2023/11/29 04:53:34;;;;;;;32.67;21.08;;;;;;;-0.42;100.00;99990.59;5044747;28;20031;-68
2023/11/29 04:55:59;;;;;;;33.53;20.55;;;;;;;-0.33;100.00;99984.84;5041891;28;20100;-66
2023/11/29 04:58:24;;;;;;;32.28;20.13;;;;;;;-0.35;100.00;99979.56;5044712;28;20384;-67
2023/11/29 05:00:50;;;;;;;35.90;20.88;;;;;;;-0.28;100.00;99986.75;5042212;28;20045;-68
2023/11/29 05:03:18;;;;;;;32.83;20.17;;;;;;;-0.22;100.00;99973.09;5043687;28;20037;-67
2023/11/29 05:05:44;;;;;;;33.58;20.65;;;;;;;-0.24;100.00;99969.56;5043303;28;20033;-69
2023/11/29 05:08:09;;;;;;;36.20;22.10;;;;;;;-0.22;100.00;99965.28;5042535;28;20029;-66
2023/11/29 05:10:35;;;;;;;34.38;22.17;;;;;;;-0.25;100.00;99970.38;5044484;28;20032;-67
2023/11/29 05:13:01;;;;;;;36.00;22.13;;;;;;;-0.20;100.00;99961.91;5041437;28;20083;-69
2023/11/29 05:15:26;;;;;;;35.53;24.00;;;;;;;-0.15;100.00;99962.06;5035858;28;20508;-68
2023/11/29 05:17:52;;;;;;;35.17;22.70;;;;;;;-0.14;100.00;99958.66;5044179;28;20040;-67
2023/11/29 05:20:17;;;;;;;36.80;23.25;;;;;;;-0.08;100.00;99953.66;5042755;28;20032;-68
2023/11/29 05:22:42;;;;;;;36.78;23.23;;;;;;;-0.03;100.00;99965.09;5042867;28;20030;-66
2023/11/29 05:25:08;;;;;;;35.15;22.83;;;;;;;0.02;100.00;99977.34;5042495;28;20033;-66
2023/11/29 05:27:33;;;;;;;35.92;22.42;;;;;;;0.07;100.00;99975.78;5041345;28;20021;-66
2023/11/29 05:29:59;;;;;;;36.08;22.95;;;;;;;0.10;100.00;99989.78;5043455;28;20029;-66
2023/11/29 05:32:24;;;;;;;34.47;22.25;;;;;;;0.15;100.00;99997.72;5041357;28;20036;-66
2023/11/29 05:34:49;;;;;;;37.22;24.80;;;;;;;0.17;100.00;99989.13;5043509;28;20061;-72
2023/11/29 05:37:16;;;;;;;36.22;23.38;;;;;;;0.23;100.00;99987.56;5041639;28;20032;-74
2023/11/29 05:39:41;;;;;;;35.53;22.75;;;;;;;0.27;100.00;99998.09;5042195;28;20063;-73
2023/11/29 05:42:06;;;;;;;37.00;26.30;;;;;;;0.33;100.00;100002.63;5042751;28;20060;-73
2023/11/29 05:44:32;;;;;;;36.65;26.60;;;;;;;0.43;100.00;99998.59;5041000;28;20033;-73
2023/11/29 05:46:58;;;;;;;37.63;28.25;;;;;;;0.40;100.00;99996.78;5044241;28;20037;-73
2023/11/29 05:49:23;;;;;;;39.17;28.77;;;;;;;0.41;100.00;100000.25;5041247;28;20029;-73
2023/11/29 05:51:49;;;;;;;39.75;28.75;;;;;;;0.43;100.00;99985.59;5043245;28;20400;-72
2023/11/29 05:54:14;;;;;;;41.20;31.77;;;;;;;0.45;100.00;99976.13;5042459;28;20116;-73
2023/11/29 05:56:39;;;;;;;41.47;31.10;;;;;;;0.44;100.00;99993.44;5041758;28;20033;-72
2023/11/29 05:59:05;;;;;;;40.22;30.83;;;;;;;0.39;100.00;99986.34;5043814;28;20494;-72
2023/11/29 06:01:31;;;;;;;39.80;30.30;;;;;;;0.35;100.00;99998.38;5040562;28;20049;-72
2023/11/29 06:03:57;;;;;;;39.30;30.20;;;;;;;0.41;100.00;100002.84;5044117;28;20448;-72
2023/11/29 06:06:22;;;;;;;38.30;28.52;;;;;;;0.41;100.00;99998.56;5039991;28;20037;-73
2023/11/29 06:08:48;;;;;;;40.30;29.17;;;;;;;0.43;100.00;99996.00;5042731;28;20025;-72
2023/11/29 06:11:13;;;;;;;37.80;26.27;;;;;;;0.41;100.00;99993.34;5042650;28;20108;-73
2023/11/29 06:13:40;;;;;;;38.63;27.50;;;;;;;0.39;100.00;100001.94;5041492;28;20025;-73
2023/11/29 06:16:07;;;;;;;37.50;27.65;;;;;;;0.38;100.00;100018.38;5043296;28;20114;-72
2023/11/29 06:18:32;;;;;;;38.35;27.35;;;;;;;0.36;100.00;99999.25;5040932;28;20112;-73
2023/11/29 06:20:58;;;;;;;37.35;28.67;;;;;;;0.31;100.00;100007.78;5043990;28;20179;-72
2023/11/29 06:23:25;;;;;;;38.05;26.65;;;;;;;0.29;100.00;100004.25;5040900;28;20480;-73
2023/11/29 06:25:51;;;;;;;38.35;27.52;;;;;;;0.27;100.00;100005.91;5043347;28;20366;-68
2023/11/29 06:28:17;;;;;;;37.25;25.33;;;;;;;0.22;100.00;99988.38;5041906;28;20032;-69
2023/11/29 06:30:42;;;;;;;36.25;25.30;;;;;;;0.23;100.00;99992.75;5040607;28;20039;-67
2023/11/29 06:33:07;;;;;;;35.08;23.67;;;;;;;0.20;100.00;99988.34;5043271;28;20033;-67
2023/11/29 06:35:34;;;;;;;33.95;23.35;;;;;;;0.17;100.00;99994.34;5040407;28;20025;-68
2023/11/29 06:37:59;;;;;;;33.30;21.55;;;;;;;0.13;100.00;99999.38;5043701;28;20058;-67
2023/11/29 06:40:25;;;;;;;32.20;19.95;;;;;;;0.19;100.00;99993.47;5040899;28;20108;-67
2023/11/29 06:42:50;;;;;;;30.25;19.13;;;;;;;0.16;100.00;99989.97;5042701;28;20039;-68
2023/11/29 06:45:19;;;;;;;28.95;17.40;;;;;;;0.18;100.00;99984.81;5041773;28;20025;-66
2023/11/29 06:47:45;;;;;;;29.08;16.90;;;;;;;0.19;100.00;99994.38;5042079;28;20032;-67
2023/11/29 06:50:10;;;;;;;26.75;14.45;;;;;;;0.21;100.00;100000.50;5042486;28;20104;-67
2023/11/29 06:52:37;;;;;;;24.02;12.35;;;;;;;0.24;100.00;100008.41;5040700;28;20455;-69
2023/11/29 06:55:02;;;;;;;25.02;12.30;;;;;;;0.24;100.00;100025.72;5046958;28;20112;-67
2023/11/29 06:57:28;;;;;;;24.52;11.85;;;;;;;0.26;100.00;100030.16;5039815;28;20120;-66
2023/11/29 06:59:53;;;;;;;23.90;11.32;;;;;;;0.29;100.00;100029.34;5046593;28;20040;-67
2023/11/29 07:02:19;;;;;;;23.73;11.73;;;;;;;0.27;100.00;100042.31;5044922;28;20142;-66
2023/11/29 07:04:44;;;;;;;23.95;11.02;;;;;;;0.26;100.00;100026.66;5045256;28;20118;-67
2023/11/29 07:07:10;;;;;;;23.98;11.50;;;;;;;0.27;100.00;100016.31;5046320;28;20025;-66
2023/11/29 07:09:36;;;;;;;23.75;11.45;;;;;;;0.24;100.00;100002.34;5042927;28;20025;-66
2023/11/29 07:12:04;;;;;;;24.45;12.43;;;;;;;0.17;100.00;100022.94;5047054;28;20365;-66
2023/11/29 07:14:30;;;;;;;25.02;12.85;;;;;;;0.13;100.00;100023.66;5039922;28;20036;-66
2023/11/29 07:16:55;;;;;;;26.48;14.90;;;;;;;0.10;100.00;100027.84;5046678;28;20033;-66
2023/11/29 07:19:21;;;;;;;27.75;15.75;;;;;;;0.09;100.00;100024.38;5044678;28;20032;-66
2023/11/29 07:21:46;;;;;;;30.63;17.52;;;;;;;0.11;100.00;100017.50;5045476;28;20385;-67
2023/11/29 07:24:12;;;;;;;30.92;18.58;;;;;;;0.13;100.00;100034.06;5045531;28;20180;-67
2023/11/29 07:26:37;;;;;;;30.88;18.75;;;;;;;0.15;100.00;100024.59;5044030;28;20116;-66
2023/11/29 07:29:04;;;;;;;33.40;19.25;;;;;;;0.18;100.00;100042.00;5045580;28;20473;-68
2023/11/29 07:31:30;;;;;;;33.17;19.33;;;;;;;0.17;100.00;100041.13;5043272;28;20424;-67
2023/11/29 07:33:56;;;;;;;33.70;20.63;;;;;;;0.17;100.00;100035.03;5046131;28;20028;-68
2023/11/29 07:36:22;;;;;;;33.47;21.90;;;;;;;0.16;100.00;100043.66;5044406;28;20428;-68
2023/11/29 07:38:48;;;;;;;33.20;21.65;;;;;;;0.17;100.00;100046.34;5045405;28;20145;-67
2023/11/29 07:41:15;;;;;;;34.85;22.77;;;;;;;0.21;100.00;100030.84;5045089;28;20028;-68
2023/11/29 07:43:41;;;;;;;36.60;23.48;;;;;;;0.23;100.00;100034.34;5044150;28;20380;-66
2023/11/29 07:46:06;;;;;;;37.35;23.88;;;;;;;0.28;100.00;100038.88;5045867;28;20113;-65
2023/11/29 07:48:32;;;;;;;36.85;24.85;;;;;;;0.33;100.00;100041.63;5043201;28;20369;-68
2023/11/29 07:50:59;;;;;;;38.53;24.52;;;;;;;0.41;100.00;100042.78;5045214;28;20060;-66
2023/11/29 07:53:24;;;;;;;37.45;24.17;;;;;;;0.47;100.00;100055.97;5043458;28;20037;-65
2023/11/29 07:55:50;;;;;;;38.60;23.65;;;;;;;0.50;100.00;100076.00;5045084;28;20101;-69
2023/11/29 07:58:15;;;;;;;35.33;22.65;;;;;;;0.51;100.00;100088.13;5044641;28;20025;-65
2023/11/29 08:00:40;;;;;;;36.42;22.55;;;;;;;0.42;100.00;100085.25;5043548;28;20088;-66
2023/11/29 08:03:06;;;;;;;37.25;23.52;;;;;;;0.47;100.00;100088.91;5045403;28;20072;-66
2023/11/29 08:05:33;;;;;;;31.77;19.20;;;;;;;0.51;100.00;100081.25;5041693;28;20041;-66
2023/11/29 08:07:58;;;;;;;30.52;17.85;;;;;;;0.51;100.00;100089.03;5038660;28;20033;-65
2023/11/29 08:10:24;;;;;;;26.48;12.77;;;;;;;0.51;100.00;100078.66;5045489;28;20483;-66
2023/11/29 08:12:50;;;;;;;25.10;10.80;;;;;;;0.55;100.00;100079.59;5043879;28;20029;-65
2023/11/29 08:15:15;;;;;;;24.73;11.27;;;;;;;0.56;100.00;100088.31;5043996;28;20021;-65
2023/11/29 08:17:41;;;;;;;25.02;11.85;;;;;;;0.51;100.00;100093.34;5045011;28;20547;-66
2023/11/29 08:20:07;;;;;;;27.38;14.55;;;;;;;0.57;100.00;100097.88;5042748;28;20397;-65
2023/11/29 08:22:33;;;;;;;27.92;14.82;;;;;;;0.65;100.00;100097.28;5046014;28;20037;-67
2023/11/29 08:24:59;;;;;;;26.88;13.52;;;;;;;0.70;100.00;100100.06;5042430;28;20086;-65
2023/11/29 08:27:24;;;;;;;27.35;13.00;;;;;;;0.74;100.00;100111.44;5045134;28;20029;-66
2023/11/29 08:29:51;;;;;;;24.58;11.43;;;;;;;0.80;100.00;100111.63;5043232;28;20033;-67
2023/11/29 08:32:16;;;;;;;24.30;10.85;;;;;;;0.78;100.00;100122.00;5044068;28;20056;-66
2023/11/29 08:34:42;;;;;;;23.77;10.60;;;;;;;0.80;100.00;100116.84;5044287;28;20464;-66
2023/11/29 08:37:07;;;;;;;23.45;10.35;;;;;;;0.77;100.00;100111.53;5042539;28;20468;-67
2023/11/29 08:39:33;;;;;;;22.52;10.10;;;;;;;0.76;100.00;100122.75;5045695;28;20032;-66
2023/11/29 08:41:59;;;;;;;23.48;10.40;;;;;;;0.77;100.00;100111.53;5040772;28;20109;-66
2023/11/29 08:44:25;;;;;;;22.38;9.13;;;;;;;0.78;100.00;100115.91;5045078;28;20041;-66
2023/11/29 08:46:50;;;;;;;22.90;8.55;;;;;;;0.82;100.00;100121.25;5043109;28;20036;-66
2023/11/29 08:49:15;;;;;;;20.00;7.93;;;;;;;0.85;100.00;100120.47;5043328;28;20243;-67
2023/11/29 08:51:42;;;;;;;22.10;8.15;;;;;;;0.84;100.00;100118.69;5043213;28;20033;-66
2023/11/29 08:54:07;;;;;;;21.52;7.75;;;;;;;0.83;100.00;100114.31;5042157;28;20030;-67
2023/11/29 08:56:33;;;;;;;21.33;8.25;;;;;;;0.80;100.00;100112.53;5045145;28;20021;-66
2023/11/29 08:58:59;;;;;;;22.20;8.70;;;;;;;0.80;100.00;100106.44;5041885;28;20021;-67
2023/11/29 09:01:24;;;;;;;22.65;9.60;;;;;;;0.78;100.00;100113.31;5044343;28;20025;-72
2023/11/29 09:03:50;;;;;;;24.02;10.40;;;;;;;0.78;100.00;100113.31;5042648;28;20053;-72
2023/11/29 09:06:16;;;;;;;24.50;12.02;;;;;;;0.76;100.00;100117.56;5043197;28;20026;-67
2023/11/29 09:08:44;;;;;;;26.60;13.20;;;;;;;0.79;100.00;100131.56;5043762;28;20449;-65
2023/11/29 09:11:09;;;;;;;25.85;13.85;;;;;;;0.87;100.00;100139.63;5042037;28;20100;-66
2023/11/29 09:13:35;;;;;;;26.60;14.38;;;;;;;0.93;100.00;100134.59;5044778;28;20112;-66
2023/11/29 09:16:00;;;;;;;26.52;15.70;;;;;;;0.97;100.00;100130.41;5041065;28;20477;-66
2023/11/29 09:18:26;;;;;;;30.00;18.00;;;;;;;1.02;100.00;100141.81;5044143;28;20083;-66
2023/11/29 09:20:52;;;;;;;28.10;17.48;;;;;;;1.14;100.00;100144.81;5042698;28;20021;-66
2023/11/29 09:23:17;;;;;;;29.83;17.63;;;;;;;1.31;100.00;100153.19;5042860;28;20059;-70
2023/11/29 09:25:43;;;;;;;30.10;18.75;;;;;;;1.59;100.00;100160.91;5042075;28;20032;-70
2023/11/29 09:28:13;;;;;;;32.70;21.25;;;;;;;2.41;100.00;100164.09;5041796;28;20030;-72
2023/11/29 09:30:40;;;;;;;32.40;20.25;;;;;;;2.76;100.00;100159.78;5043848;28;20059;-68
2023/11/29 09:33:06;;;;;;;31.33;19.55;;;;;;;2.63;100.00;100157.72;5039930;28;20049;-73
2023/11/29 09:35:32;;;;;;;27.02;16.48;;;;;;;2.40;100.00;100167.53;5043425;28;20067;-66
2023/11/29 09:37:57;;;;;;;27.02;14.73;;;;;;;2.24;100.00;100168.84;5041211;28;20044;-74
2023/11/29 09:40:23;;;;;;;24.30;12.32;;;;;;;1.98;100.00;100174.25;5043431;28;20029;-71
2023/11/29 09:42:49;;;;;;;23.77;10.70;;;;;;;1.84;100.00;100166.03;5042603;28;20032;-71
2023/11/29 09:45:21;;;;;;;23.73;11.27;;;;;;;1.89;100.00;100180.09;5042127;28;20077;-68
2023/11/29 09:47:47;;;;;;;23.23;11.40;;;;;;;1.90;100.00;100180.97;5042564;28;20017;-67
2023/11/29 09:50:13;;;;;;;21.25;7.90;;;;;;;1.91;100.00;100175.78;5042144;28;20068;-66
2023/11/29 09:52:39;;;;;;;21.52;7.97;;;;;;;1.83;100.00;100179.88;5043588;28;20044;-71
2023/11/29 09:55:05;;;;;;;20.15;6.15;;;;;;;1.88;100.00;100180.03;5041027;28;20034;-73
2023/11/29 09:57:30;;;;;;;18.20;5.55;;;;;;;1.77;100.00;100187.53;5044443;28;20025;-71
2023/11/29 09:59:56;;;;;;;19.20;5.30;;;;;;;1.59;100.00;100190.47;5041519;28;20488;-67
2023/11/29 10:02:22;;;;;;;16.80;4.90;;;;;;;1.75;100.00;100186.63;5042836;28;20396;-65
2023/11/29 10:04:47;;;;;;;18.13;4.65;;;;;;;1.64;100.00;100188.88;5042612;28;20422;-69
2023/11/29 10:07:13;;;;;;;18.17;5.00;;;;;;;1.70;100.00;100186.47;5041812;28;20519;-67
2023/11/29 10:09:38;;;;;;;18.02;4.70;;;;;;;1.74;100.00;100185.72;5043781;28;20472;-65
2023/11/29 10:12:08;;;;;;;16.52;4.55;;;;;;;1.76;100.00;100190.97;5040994;28;20112;-67
2023/11/29 10:14:37;;;;;;;17.38;4.53;;;;;;;1.69;100.00;100186.41;5036940;28;20535;-66
2023/11/29 10:17:03;;;;;;;17.08;4.30;;;;;;;1.67;100.00;100188.97;5037007;28;20030;-68
2023/11/29 10:19:29;;;;;;;16.13;4.50;;;;;;;1.55;100.00;100184.28;5043934;28;20033;-70
2023/11/29 10:21:54;;;;;;;15.45;4.22;;;;;;;1.53;100.00;100187.66;5041334;28;20036;-67
2023/11/29 10:24:24;;;;;;;16.27;4.60;;;;;;;1.52;100.00;100184.19;5042512;28;20042;-69
2023/11/29 10:26:50;;;;;;;16.23;4.30;;;;;;;1.61;100.00;100183.59;5041849;28;20430;-68
2023/11/29 10:29:16;;;;;;;18.27;4.28;;;;;;;1.87;100.00;100186.09;5042775;28;20026;-69
2023/11/29 10:31:42;;;;;;;14.30;3.90;;;;;;;2.15;100.00;100186.88;5046924;28;20033;-68
2023/11/29 10:34:10;;;;;;;16.58;4.50;;;;;;;2.86;100.00;100187.00;5044820;28;20034;-68
2023/11/29 10:36:39;;;;;;;17.80;4.50;;;;;;;3.94;100.00;100189.47;5047595;28;20482;-67
2023/11/29 10:39:11;;;;;;;14.63;4.00;;;;;;;4.34;100.00;100186.78;5044536;28;20061;-67
2023/11/29 10:41:47;;;;;;;16.25;3.75;;;;;;;3.99;100.00;100181.72;5041494;28;20108;-66
2023/11/29 10:44:13;;;;;;;13.57;3.50;;;;;;;3.39;100.00;100183.03;5047012;28;20032;-66
2023/11/29 10:46:40;;;;;;;13.52;3.33;;;;;;;2.90;100.00;100174.94;5044628;28;20033;-68
2023/11/29 10:49:19;;;;;;;15.32;3.50;;;;;;;2.82;100.00;100179.06;5047316;28;20037;-67
2023/11/29 10:51:47;;;;;;;14.45;3.60;;;;;;;2.57;100.00;100168.88;5045468;28;20025;-67
2023/11/29 10:54:16;;;;;;;14.30;3.30;;;;;;;2.42;100.00;100171.97;5046359;28;20025;-70
2023/11/29 10:56:42;;;;;;;13.98;3.40;;;;;;;2.27;100.00;100176.75;5044828;28;20526;-68
2023/11/29 10:59:13;;;;;;;14.77;3.45;;;;;;;2.28;100.00;100168.09;5047298;28;20033;-73
2023/11/29 11:01:41;;;;;;;15.80;3.83;;;;;;;2.31;100.00;100180.34;5044497;28;20075;-70
2023/11/29 11:04:09;;;;;;;16.45;3.80;;;;;;;2.22;100.00;100173.16;5046271;28;20511;-72